createdAt,value
2022-08-23T00:01:26.765Z,47.73
2022-08-23T00:06:35.783Z,48.03
2022-08-23T00:11:47.228Z,47.37
2022-08-23T00:16:53.845Z,47.70
2022-08-23T00:21:58.955Z,47.20
2022-08-23T00:27:15.734Z,47.50
2022-08-23T00:32:30.051Z,47.58
2022-08-23T00:37:35.229Z,47.90
2022-08-23T00:43:21.447Z,47.57
2022-08-23T00:48:27.225Z,47.00
2022-08-23T00:53:36.343Z,47.35
2022-08-23T00:58:42.752Z,46.93
2022-08-23T01:04:04.330Z,47.27
2022-08-23T01:09:00.873Z,47.43
2022-08-23T01:14:17.840Z,46.93
2022-08-23T01:19:32.888Z,47.40
2022-08-23T01:25:06.078Z,47.47
2022-08-23T01:29:46.412Z,47.27
2022-08-23T01:34:51.970Z,46.83
2022-08-23T01:39:57.153Z,46.67
2022-08-23T01:45:02.825Z,47.90
2022-08-23T01:50:10.126Z,47.08
2022-08-23T01:55:15.620Z,47.23
2022-08-23T02:00:23.687Z,46.97
2022-08-23T02:05:31.531Z,47.10
2022-08-23T02:10:39.023Z,47.03
2022-08-23T02:15:47.434Z,46.77
2022-08-23T02:20:54.266Z,47.23
2022-08-23T02:25:59.185Z,46.93
2022-08-23T02:31:04.999Z,47.00
2022-08-23T02:36:12.683Z,47.27
2022-08-23T02:46:23.488Z,47.07
2022-08-23T02:51:29.354Z,46.85
2022-08-23T02:56:35.678Z,46.63
2022-08-23T03:01:41.087Z,46.37
2022-08-23T03:06:46.113Z,46.43
2022-08-23T03:11:51.438Z,47.30
2022-08-23T03:16:58.403Z,46.87
2022-08-23T03:22:04.520Z,47.67
2022-08-23T03:32:15.458Z,46.85
2022-08-23T03:37:21.241Z,46.80
2022-08-23T03:42:30.804Z,47.13
2022-08-23T03:47:33.484Z,47.30
2022-08-23T03:52:38.840Z,46.97
2022-08-23T03:57:44.721Z,47.57
2022-08-23T04:02:51.129Z,47.13
2022-08-23T04:07:56.984Z,47.37
2022-08-23T04:13:02.713Z,47.50
2022-08-23T04:18:08.041Z,47.43
2022-08-23T04:23:14.536Z,47.27
2022-08-23T04:28:20.396Z,47.17
2022-08-23T04:33:26.465Z,47.27
2022-08-23T04:38:32.262Z,47.20
2022-08-23T04:43:37.174Z,47.40
2022-08-23T04:48:43.408Z,47.47
2022-08-23T04:53:48.635Z,47.30
2022-08-23T04:58:53.945Z,48.33
2022-08-23T05:04:00.223Z,47.43
2022-08-23T05:14:12.250Z,48.33
2022-08-23T05:19:17.564Z,48.87
2022-08-23T05:24:24.309Z,49.23
2022-08-23T05:29:29.640Z,49.40
2022-08-23T05:34:34.614Z,50.17
2022-08-23T05:39:39.580Z,49.77
2022-08-23T05:44:46.044Z,48.93
2022-08-23T05:54:55.524Z,49.38
2022-08-23T06:00:01.769Z,49.47
2022-08-23T06:05:07.411Z,49.83
2022-08-23T06:10:16.226Z,49.20
2022-08-23T06:15:20.664Z,48.47
2022-08-23T06:20:26.341Z,48.80
2022-08-23T06:25:32.667Z,48.83
2022-08-23T06:30:40.182Z,49.30
2022-08-23T06:35:45.187Z,49.53
2022-08-23T06:40:50.578Z,49.00
2022-08-23T06:45:58.245Z,48.80
2022-08-23T06:51:03.412Z,48.83
2022-08-23T06:56:11.936Z,48.40
2022-08-23T07:01:44.813Z,48.38
2022-08-23T07:06:32.608Z,48.50
2022-08-23T07:11:37.939Z,48.50
2022-08-23T07:16:46.200Z,48.50
2022-08-23T07:21:51.336Z,48.57
2022-08-23T07:26:56.693Z,49.17
2022-08-23T07:32:01.687Z,49.40
2022-08-23T07:37:11.592Z,49.20
2022-08-23T07:42:23.339Z,48.53
2022-08-23T07:47:20.552Z,48.60
2022-08-23T07:52:26.034Z,47.80
2022-08-23T07:57:31.999Z,48.17
2022-08-23T08:02:38.503Z,48.27
2022-08-23T08:07:45.115Z,47.77
2022-08-23T08:12:50.486Z,48.20
2022-08-23T08:17:55.816Z,48.33
2022-08-23T08:23:00.934Z,48.43
2022-08-23T08:28:06.235Z,48.33
2022-08-23T08:33:15.198Z,48.08
2022-08-23T08:38:21.447Z,48.23
2022-08-23T08:43:33.874Z,48.38
2022-08-23T08:48:45.956Z,48.40
2022-08-23T08:53:53.058Z,48.33
2022-08-23T08:59:01.012Z,48.13
2022-08-23T09:04:08.130Z,48.63
2022-08-23T09:09:35.203Z,48.27
2022-08-23T09:14:50.448Z,48.40
2022-08-23T09:20:01.735Z,48.70
2022-08-23T09:25:12.733Z,48.23
2022-08-23T09:30:20.880Z,48.92
2022-08-23T09:35:27.782Z,49.10
2022-08-23T09:40:41.875Z,49.63
2022-08-23T09:45:53.503Z,49.53
2022-08-23T09:51:08.993Z,49.67
2022-08-23T09:56:17.617Z,50.47
2022-08-23T10:01:27.093Z,50.20
2022-08-23T10:06:38.280Z,50.13
2022-08-23T10:11:46.414Z,50.80
2022-08-23T10:17:03.016Z,50.50
2022-08-23T10:22:23.174Z,51.18
2022-08-23T10:28:03.959Z,51.03
2022-08-23T10:33:19.443Z,51.30
2022-08-23T10:38:30.748Z,51.27
2022-08-23T10:44:09.551Z,51.17
2022-08-23T10:49:16.815Z,51.10
2022-08-23T10:54:26.767Z,50.40
2022-08-23T10:59:35.977Z,50.50
2022-08-23T11:05:07.813Z,50.57
2022-08-23T11:10:29.200Z,50.83
2022-08-23T11:15:45.353Z,51.27
2022-08-23T11:20:54.216Z,50.77
2022-08-23T11:26:02.613Z,50.97
2022-08-23T11:31:15.027Z,50.67
2022-08-23T11:36:26.551Z,50.28
2022-08-23T11:41:34.921Z,49.63
2022-08-23T11:46:55.893Z,50.60
2022-08-23T11:52:27.299Z,50.63
2022-08-23T11:57:54.489Z,52.70
2022-08-23T12:03:31.963Z,51.53
2022-08-23T12:08:49.846Z,50.65
2022-08-23T12:13:58.156Z,50.03
2022-08-23T12:19:07.912Z,49.97
2022-08-23T12:24:21.279Z,49.50
2022-08-23T12:29:33.061Z,49.53
2022-08-23T12:34:42.290Z,49.30
2022-08-23T12:39:53.641Z,48.90
2022-08-23T12:45:20.657Z,48.97
2022-08-23T12:50:39.162Z,48.80
2022-08-23T12:55:50.473Z,48.90
2022-08-23T13:00:59.727Z,48.93
2022-08-23T13:06:08.745Z,49.08
2022-08-23T13:11:19.565Z,48.83
2022-08-23T13:16:39.453Z,47.93
2022-08-23T13:21:46.342Z,48.17
2022-08-23T13:32:04.261Z,48.15
2022-08-23T13:37:22.559Z,48.33
2022-08-23T13:42:47.247Z,48.95
2022-08-23T13:48:10.193Z,48.23
2022-08-23T13:53:16.716Z,48.40
2022-08-23T13:58:33.388Z,48.60
2022-08-23T14:03:38.980Z,48.55
2022-08-23T14:08:45.095Z,48.65
2022-08-23T14:13:50.648Z,48.63
2022-08-23T14:24:03.132Z,48.73
2022-08-23T14:29:08.915Z,48.63
2022-08-23T14:34:16.161Z,49.17
2022-08-23T14:39:22.359Z,49.08
2022-08-23T14:44:33.290Z,48.83
2022-08-23T14:49:36.078Z,49.00
2022-08-23T14:54:42.375Z,48.80
2022-08-23T15:04:53.426Z,48.40
2022-08-23T15:09:59.127Z,48.90
2022-08-23T15:15:09.209Z,48.40
2022-08-23T15:20:16.830Z,48.53
2022-08-23T15:25:22.613Z,48.63
2022-08-23T15:35:37.961Z,48.43
2022-08-23T15:40:45.364Z,48.87
2022-08-23T15:45:51.249Z,50.47
2022-08-23T15:50:59.096Z,53.73
2022-08-23T15:56:08.529Z,60.70
2022-08-23T16:01:14.658Z,51.33
2022-08-23T16:06:19.833Z,50.57
2022-08-23T16:11:25.475Z,49.93
2022-08-23T16:16:36.820Z,49.80
2022-08-23T16:21:42.913Z,50.03
2022-08-23T16:26:50.594Z,49.67
2022-08-23T16:31:57.020Z,49.75
2022-08-23T16:37:06.518Z,49.67
2022-08-23T16:42:13.231Z,49.90
2022-08-23T16:47:19.137Z,50.67
2022-08-23T16:52:24.835Z,51.73
2022-08-23T16:57:31.946Z,50.67
2022-08-23T17:02:39.257Z,49.10
2022-08-23T17:07:45.493Z,49.00
2022-08-23T17:12:54.089Z,49.25
2022-08-23T17:18:01.355Z,48.87
2022-08-23T17:23:08.001Z,49.17
2022-08-23T17:28:12.945Z,48.55
2022-08-23T17:33:18.906Z,48.47
2022-08-23T17:38:24.160Z,48.90
2022-08-23T17:43:30.002Z,49.20
2022-08-23T17:53:42.836Z,48.87
2022-08-23T17:58:48.406Z,48.87
2022-08-23T18:03:54.005Z,49.33
2022-08-23T18:09:02.568Z,49.40
2022-08-23T18:14:08.537Z,49.23
2022-08-23T18:19:16.968Z,49.67
2022-08-23T18:24:22.747Z,49.10
2022-08-23T18:30:21.440Z,49.63
2022-08-23T18:35:30.533Z,49.67
2022-08-23T18:40:38.437Z,49.57
2022-08-23T18:45:46.558Z,50.13
2022-08-23T18:50:53.255Z,50.00
2022-08-23T18:55:59.891Z,51.07
2022-08-23T19:01:27.171Z,51.60
2022-08-23T19:06:33.588Z,51.80
2022-08-23T19:11:40.401Z,51.80
2022-08-23T19:16:48.443Z,52.27
2022-08-23T19:21:54.718Z,49.57
2022-08-23T19:26:59.778Z,50.47
2022-08-23T19:32:06.804Z,51.67
2022-08-23T19:37:20.513Z,53.17
2022-08-23T19:42:21.270Z,53.63
2022-08-23T19:47:28.758Z,53.87
2022-08-23T19:52:35.931Z,57.17
2022-08-23T19:57:41.817Z,55.27
2022-08-23T20:02:49.409Z,55.00
2022-08-23T20:07:56.145Z,52.83
2022-08-23T20:18:08.640Z,52.65
2022-08-23T20:23:33.229Z,52.10
2022-08-23T20:28:40.338Z,51.53
2022-08-23T20:33:47.814Z,51.43
2022-08-23T20:38:54.032Z,51.55
2022-08-23T20:49:04.998Z,51.18
2022-08-23T20:54:11.757Z,53.80
2022-08-23T20:59:18.325Z,52.48
2022-08-23T21:04:29.964Z,51.67
2022-08-23T21:09:30.911Z,52.00
2022-08-23T21:14:36.301Z,51.10
2022-08-23T21:19:43.731Z,51.37
2022-08-23T21:24:49.750Z,51.03
2022-08-23T21:29:55.166Z,49.87
2022-08-23T21:35:02.656Z,50.70
2022-08-23T21:40:09.195Z,52.73
2022-08-23T21:45:14.584Z,52.97
2022-08-23T21:50:20.100Z,51.57
2022-08-23T21:55:36.020Z,50.92
2022-08-23T22:00:35.292Z,50.80
2022-08-23T22:05:43.924Z,50.85
2022-08-23T22:10:57.567Z,50.70
2022-08-23T22:15:57.283Z,50.43
2022-08-23T22:26:08.425Z,49.85
2022-08-23T22:31:16.559Z,50.20
2022-08-23T22:36:24.879Z,51.73
2022-08-23T22:41:31.664Z,51.03
2022-08-23T22:46:38.526Z,51.30
2022-08-23T22:51:44.317Z,51.23
2022-08-23T22:56:52.261Z,51.73
2022-08-23T23:01:58.787Z,51.13
2022-08-23T23:07:04.786Z,51.37
2022-08-23T23:12:10.473Z,50.43
2022-08-23T23:17:16.688Z,50.73
2022-08-23T23:22:22.792Z,50.65
2022-08-23T23:27:28.021Z,50.13
2022-08-23T23:32:34.972Z,50.45
2022-08-23T23:37:40.176Z,50.33
2022-08-23T23:42:45.447Z,50.33
2022-08-23T23:47:51.160Z,51.20
2022-08-23T23:52:57.051Z,51.33
2022-08-23T23:58:02.698Z,50.93
